Time;durP1;ratioP1;P1;durP2;ratioP2;P2;SDS_P1;SDS_P2;PMS_P1;PMS_P2;Temp;Humidity;BMP_temperature;BMP_pressure;BME280_temperature;BME280_humidity;BME280_pressure;Samples;Min_cycle;Max_cycle;Signal;HPM_P1;HPM_P2
2021/09/14 00:01:01;;;;;;;1999.90;999.90;;;16.50;99.90;;;;;;5031768;28;20245;-66
2021/09/14 00:03:27;;;;;;;1999.90;999.90;;;16.50;99.90;;;;;;5030995;28;20253;-66
2021/09/14 00:05:52;;;;;;;1999.90;999.90;;;16.50;99.90;;;;;;5030596;28;20427;-65
2021/09/14 00:08:18;;;;;;;1999.90;999.90;;;16.50;99.90;;;;;;5031212;28;20192;-66
2021/09/14 00:10:44;;;;;;;1999.90;999.90;;;16.50;99.90;;;;;;5031000;28;20242;-66
2021/09/14 00:13:10;;;;;;;1999.90;999.90;;;16.50;99.90;;;;;;5030749;28;20457;-66
2021/09/14 00:15:36;;;;;;;1999.90;999.90;;;16.50;99.90;;;;;;5030610;28;20196;-65
2021/09/14 00:18:02;;;;;;;1999.90;999.90;;;16.50;99.90;;;;;;5030714;28;20189;-65
2021/09/14 00:20:27;;;;;;;1999.90;999.90;;;16.50;99.90;;;;;;5030805;28;20178;-66
2021/09/14 00:22:53;;;;;;;1999.90;999.90;;;16.50;99.90;;;;;;5031115;28;20479;-66
2021/09/14 00:25:19;;;;;;;1999.90;999.90;;;16.40;99.90;;;;;;5029750;28;20214;-66
2021/09/14 00:27:44;;;;;;;1999.90;999.90;;;16.50;99.90;;;;;;5030914;28;20183;-66
2021/09/14 00:30:12;;;;;;;1999.90;999.90;;;16.40;99.90;;;;;;5030677;28;20176;-65
2021/09/14 00:32:38;;;;;;;1999.90;999.90;;;16.40;99.90;;;;;;5030332;28;20232;-66
2021/09/14 00:35:04;;;;;;;1999.90;999.90;;;16.50;99.90;;;;;;5030223;28;20485;-66
2021/09/14 00:37:29;;;;;;;1999.90;999.90;;;16.40;99.90;;;;;;5030398;28;20423;-65
2021/09/14 00:39:55;;;;;;;1999.90;999.90;;;16.40;99.90;;;;;;5030338;28;20409;-66
2021/09/14 00:42:21;;;;;;;1999.90;999.90;;;16.40;99.90;;;;;;5030771;28;20187;-66
2021/09/14 00:44:46;;;;;;;1999.90;999.90;;;16.30;99.90;;;;;;5029501;28;20215;-66
2021/09/14 00:47:12;;;;;;;1999.90;999.90;;;16.30;99.90;;;;;;5030126;28;20183;-66
2021/09/14 00:49:38;;;;;;;1999.90;999.90;;;16.30;99.90;;;;;;5030720;28;20191;-66
2021/09/14 00:52:03;;;;;;;1999.90;999.90;;;16.30;99.90;;;;;;5029828;28;20802;-66
2021/09/14 00:54:30;;;;;;;1999.90;999.90;;;16.20;99.90;;;;;;5029638;28;20198;-66
2021/09/14 00:56:59;;;;;;;1999.90;999.90;;;16.20;99.90;;;;;;5030537;28;20203;-66
2021/09/14 00:59:25;;;;;;;1999.90;999.90;;;16.10;99.90;;;;;;5029966;28;20414;-67
2021/09/14 01:01:53;;;;;;;1999.90;999.90;;;16.10;99.90;;;;;;5029940;28;20997;-66
2021/09/14 01:04:19;;;;;;;1999.90;999.90;;;16.00;99.90;;;;;;5029568;28;20433;-66
2021/09/14 01:06:45;;;;;;;1999.90;999.90;;;16.00;99.90;;;;;;5029678;28;20413;-66
2021/09/14 01:09:12;;;;;;;1999.90;999.90;;;15.90;99.90;;;;;;5029577;28;20256;-66
2021/09/14 01:11:39;;;;;;;1999.90;999.90;;;15.90;99.90;;;;;;5030131;28;20189;-66
2021/09/14 01:14:07;;;;;;;1999.90;999.90;;;15.90;99.90;;;;;;5028903;28;20501;-66
2021/09/14 01:16:34;;;;;;;1999.90;999.90;;;15.90;99.90;;;;;;5029629;28;21104;-66
2021/09/14 01:19:01;;;;;;;1999.90;999.90;;;15.90;99.90;;;;;;5030285;28;20411;-66
2021/09/14 01:21:28;;;;;;;1999.90;999.90;;;15.80;99.90;;;;;;5029579;28;20497;-66
2021/09/14 01:23:55;;;;;;;1999.90;999.90;;;15.80;99.90;;;;;;5029105;28;20479;-66
2021/09/14 01:26:21;;;;;;;1999.90;999.90;;;15.80;99.90;;;;;;5028401;28;20447;-66
2021/09/14 01:28:47;;;;;;;1999.90;999.90;;;15.80;99.90;;;;;;5029031;28;20418;-66
2021/09/14 01:31:13;;;;;;;1999.90;999.90;;;15.80;99.90;;;;;;5029084;28;20947;-66
2021/09/14 01:33:39;;;;;;;1999.90;999.90;;;15.70;99.90;;;;;;5029655;28;20213;-66
2021/09/14 01:36:05;;;;;;;1999.90;999.90;;;15.70;99.90;;;;;;5028604;28;20666;-67
2021/09/14 01:38:30;;;;;;;1999.90;999.90;;;15.70;99.90;;;;;;5029005;28;20202;-66
2021/09/14 01:40:56;;;;;;;1999.90;999.90;;;15.80;99.90;;;;;;5029712;28;20415;-67
2021/09/14 01:43:23;;;;;;;1999.90;999.90;;;15.80;99.90;;;;;;5029039;28;20189;-66
2021/09/14 01:45:48;;;;;;;1999.90;999.90;;;15.80;99.90;;;;;;5028670;28;20182;-67
2021/09/14 01:48:14;;;;;;;1999.90;999.90;;;15.70;99.90;;;;;;5029020;28;20928;-66
2021/09/14 01:50:41;;;;;;;1999.90;999.90;;;15.80;99.90;;;;;;5028930;28;20184;-66
2021/09/14 01:53:06;;;;;;;1999.90;999.90;;;15.80;99.90;;;;;;5029338;28;20208;-67
2021/09/14 01:55:32;;;;;;;1999.90;999.90;;;15.80;99.90;;;;;;5028412;28;20986;-66
2021/09/14 01:57:58;;;;;;;1999.90;999.90;;;15.80;99.90;;;;;;5028779;28;20173;-66
2021/09/14 02:00:30;;;;;;;1999.90;999.90;;;15.80;99.90;;;;;;5029332;28;20506;-66
2021/09/14 02:03:19;;;;;;;1999.90;999.90;;;15.80;99.90;;;;;;5029313;28;20417;-66
2021/09/14 02:59:00;;;;;;;1999.90;999.90;;;15.20;99.90;;;;;;5028619;28;20857;-66
2021/09/14 03:01:26;;;;;;;1999.90;999.90;;;15.20;99.90;;;;;;5028127;28;20466;-67
2021/09/14 03:03:53;;;;;;;1999.90;999.90;;;15.20;99.90;;;;;;5027748;28;20201;-66
2021/09/14 03:06:19;;;;;;;1999.90;999.90;;;15.20;99.90;;;;;;5028592;28;20264;-66
2021/09/14 03:08:46;;;;;;;1999.90;999.90;;;15.20;99.90;;;;;;5027944;28;20516;-66
2021/09/14 03:11:14;;;;;;;1999.90;999.90;;;15.20;99.90;;;;;;5027973;28;20424;-66
2021/09/14 03:13:41;;;;;;;1999.90;999.90;;;15.10;99.90;;;;;;5028323;28;20476;-67
2021/09/14 03:16:08;;;;;;;1999.90;999.90;;;15.10;99.90;;;;;;5027643;28;20416;-66
2021/09/14 03:18:35;;;;;;;1999.90;999.90;;;15.20;99.90;;;;;;5027811;28;20887;-67
2021/09/14 03:21:02;;;;;;;1999.90;999.90;;;15.10;99.90;;;;;;5028606;28;20413;-66
2021/09/14 03:23:28;;;;;;;1999.90;999.90;;;15.10;99.90;;;;;;5027798;28;20909;-66
2021/09/14 03:25:53;;;;;;;1999.90;999.90;;;15.10;99.90;;;;;;5027368;28;20424;-66
2021/09/14 03:28:19;;;;;;;1999.90;999.90;;;15.00;99.90;;;;;;5028313;28;20191;-67
2021/09/14 03:30:45;;;;;;;1999.90;999.90;;;14.90;99.90;;;;;;5028650;28;20187;-67
2021/09/14 03:33:10;;;;;;;1999.90;999.90;;;14.90;99.90;;;;;;5031747;28;20204;-66
2021/09/14 03:35:36;;;;;;;1999.90;999.90;;;15.00;99.90;;;;;;5031180;28;20223;-66
2021/09/14 03:38:02;;;;;;;1999.90;999.90;;;14.90;99.90;;;;;;5032396;22;20282;-67
2021/09/14 03:40:28;;;;;;;1999.90;999.90;;;14.90;99.90;;;;;;5012134;28;20468;-67
2021/09/14 03:42:54;;;;;;;1999.90;999.90;;;14.90;99.90;;;;;;5011964;28;20424;-67
2021/09/14 03:45:19;;;;;;;1999.90;999.90;;;14.90;99.90;;;;;;5010791;28;20193;-67
2021/09/14 03:47:45;;;;;;;1999.90;999.90;;;14.90;99.90;;;;;;5011981;28;20201;-67
2021/09/14 03:50:11;;;;;;;1999.90;999.90;;;14.90;99.90;;;;;;5011767;28;20185;-67
2021/09/14 03:52:36;;;;;;;1999.90;999.90;;;14.80;99.90;;;;;;5011353;28;20202;-67
2021/09/14 03:55:03;;;;;;;1999.90;999.90;;;14.80;99.90;;;;;;5011313;28;20468;-67
2021/09/14 03:57:28;;;;;;;1999.90;999.90;;;14.80;99.90;;;;;;5011263;28;20677;-67
2021/09/14 03:59:55;;;;;;;1999.90;999.90;;;14.70;99.90;;;;;;5011479;28;20413;-67
2021/09/14 04:09:50;;;;;;;1999.90;999.90;;;14.70;99.90;;;;;;5011304;28;20418;-67
2021/09/14 04:12:16;;;;;;;1999.90;999.90;;;14.60;99.90;;;;;;5011553;28;21416;-67
2021/09/14 04:14:42;;;;;;;1999.90;999.90;;;14.50;99.90;;;;;;5010323;28;20432;-67
2021/09/14 04:17:07;;;;;;;1999.90;999.90;;;14.60;99.90;;;;;;5011358;28;20275;-67
2021/09/14 04:19:33;;;;;;;1999.90;999.90;;;14.60;99.90;;;;;;5011297;28;20186;-67
2021/09/14 04:21:58;;;;;;;1999.90;999.90;;;14.60;99.90;;;;;;5011016;28;20215;-67
2021/09/14 04:24:24;;;;;;;1999.90;999.90;;;14.50;99.90;;;;;;5010680;28;20216;-67
2021/09/14 04:26:50;;;;;;;1999.90;999.90;;;14.60;99.90;;;;;;5011041;28;20203;-67
2021/09/14 04:29:15;;;;;;;1999.90;999.90;;;14.50;99.90;;;;;;5010598;28;20731;-67
2021/09/14 04:31:41;;;;;;;1999.90;999.90;;;14.50;99.90;;;;;;5011412;28;20240;-67
2021/09/14 04:34:07;;;;;;;1999.90;999.90;;;14.50;99.90;;;;;;5010235;28;20208;-67
2021/09/14 04:36:32;;;;;;;1999.90;999.90;;;14.60;99.90;;;;;;4993331;28;20194;-67
2021/09/14 04:38:58;;;;;;;1999.90;999.90;;;14.50;99.90;;;;;;5010988;28;20175;-67
2021/09/14 04:41:23;;;;;;;1999.90;999.90;;;14.50;99.90;;;;;;5010636;28;20212;-67
2021/09/14 04:43:49;;;;;;;1999.90;999.90;;;14.50;99.90;;;;;;5009903;28;20545;-67
2021/09/14 04:46:15;;;;;;;1999.90;999.90;;;14.50;99.90;;;;;;5010425;28;20180;-67
2021/09/14 04:48:40;;;;;;;1999.90;999.90;;;14.40;99.90;;;;;;5010186;28;20182;-67
2021/09/14 04:51:06;;;;;;;1999.90;999.90;;;14.40;99.90;;;;;;5011072;28;20194;-67
2021/09/14 04:53:31;;;;;;;1999.90;999.90;;;14.40;99.90;;;;;;5010251;28;20622;-67
2021/09/14 04:55:57;;;;;;;1999.90;999.90;;;14.40;99.90;;;;;;5009977;28;20174;-67
2021/09/14 04:58:23;;;;;;;1999.90;999.90;;;14.40;99.90;;;;;;5010689;28;20203;-67
2021/09/14 05:00:48;;;;;;;1999.90;999.90;;;14.50;99.90;;;;;;5010219;28;20201;-67
2021/09/14 05:03:14;;;;;;;1999.90;999.90;;;14.50;99.90;;;;;;5010521;28;20599;-67
2021/09/14 05:05:39;;;;;;;1999.90;999.90;;;14.50;99.90;;;;;;5009879;28;20220;-67
2021/09/14 05:08:05;;;;;;;1999.90;999.90;;;14.50;99.90;;;;;;5010466;28;20247;-68
2021/09/14 05:10:31;;;;;;;1999.90;999.90;;;14.50;99.90;;;;;;5011487;28;20238;-67
2021/09/14 05:12:57;;;;;;;1999.90;999.90;;;14.60;99.90;;;;;;5010825;28;20204;-67
2021/09/14 05:15:22;;;;;;;1999.90;999.90;;;14.60;99.90;;;;;;5010085;28;20178;-67
2021/09/14 05:17:48;;;;;;;1999.90;999.90;;;14.70;99.90;;;;;;5010626;28;20187;-67
2021/09/14 05:20:14;;;;;;;1999.90;999.90;;;14.70;99.90;;;;;;5009993;28;20174;-67
2021/09/14 05:22:41;;;;;;;1999.90;999.90;;;14.70;99.90;;;;;;5009783;28;20179;-67
2021/09/14 05:25:07;;;;;;;1999.90;999.90;;;14.70;99.90;;;;;;5009744;28;20428;-67
2021/09/14 05:27:33;;;;;;;1999.90;999.90;;;14.70;99.90;;;;;;5009443;28;20487;-67
2021/09/14 05:29:59;;;;;;;1999.90;999.90;;;14.80;99.90;;;;;;5009906;28;20450;-67
2021/09/14 05:32:26;;;;;;;1999.90;999.90;;;14.80;99.90;;;;;;5010122;28;20201;-67
2021/09/14 05:34:52;;;;;;;1999.90;999.90;;;14.90;99.90;;;;;;5009010;28;20173;-67
2021/09/14 05:37:18;;;;;;;1999.90;999.90;;;14.90;99.90;;;;;;5009758;28;20452;-67
2021/09/14 05:39:44;;;;;;;1999.90;999.90;;;14.90;99.90;;;;;;5010074;28;20189;-67
2021/09/14 05:42:10;;;;;;;1999.90;999.90;;;14.90;99.90;;;;;;5009544;28;20831;-67
2021/09/14 05:44:36;;;;;;;1999.90;999.90;;;15.00;99.90;;;;;;5009190;28;20562;-67
2021/09/14 05:47:02;;;;;;;1999.90;999.90;;;15.00;99.90;;;;;;5009499;28;20199;-67
2021/09/14 05:49:28;;;;;;;1999.90;999.90;;;15.00;99.90;;;;;;5009299;28;20236;-67
2021/09/14 05:51:54;;;;;;;1999.90;999.90;;;15.10;99.90;;;;;;5009697;28;20547;-67
2021/09/14 05:54:20;;;;;;;1999.90;999.90;;;15.10;99.90;;;;;;5007933;28;20219;-67
2021/09/14 05:56:45;;;;;;;1999.90;999.90;;;15.10;99.90;;;;;;5009182;28;20968;-67
2021/09/14 05:59:11;;;;;;;1999.90;999.90;;;15.10;99.90;;;;;;5009814;28;20169;-67
2021/09/14 06:01:36;;;;;;;1999.90;999.90;;;15.20;99.90;;;;;;5009231;28;20649;-67
2021/09/14 06:04:02;;;;;;;1999.90;999.90;;;15.30;99.90;;;;;;5008598;28;20220;-67
2021/09/14 06:06:27;;;;;;;1999.90;999.90;;;15.30;99.90;;;;;;5009491;28;20874;-67
2021/09/14 06:08:53;;;;;;;1999.90;999.90;;;15.30;99.90;;;;;;5008921;28;20204;-67
2021/09/14 06:11:19;;;;;;;1999.90;999.90;;;15.40;99.90;;;;;;5009393;28;20201;-67
2021/09/14 06:13:45;;;;;;;1999.90;999.90;;;15.40;99.90;;;;;;5008785;28;20212;-67
2021/09/14 06:16:10;;;;;;;1999.90;999.90;;;15.50;99.90;;;;;;5008747;28;20228;-67
2021/09/14 06:18:36;;;;;;;1999.90;999.90;;;15.40;99.90;;;;;;5009402;28;20426;-67
2021/09/14 06:21:02;;;;;;;1999.90;999.90;;;15.50;99.90;;;;;;5008974;28;20268;-67
2021/09/14 06:23:28;;;;;;;1999.90;999.90;;;15.50;99.90;;;;;;5009027;28;20603;-67
2021/09/14 06:25:54;;;;;;;1999.90;999.90;;;15.60;99.90;;;;;;5008788;28;20424;-67
2021/09/14 06:28:20;;;;;;;1999.90;999.90;;;15.60;99.90;;;;;;5008606;28;20245;-67
2021/09/14 06:30:45;;;;;;;1999.90;999.90;;;15.70;99.90;;;;;;5008681;28;20454;-67
2021/09/14 06:33:11;;;;;;;1999.90;999.90;;;15.70;99.90;;;;;;5009356;28;20203;-67
2021/09/14 06:35:36;;;;;;;1999.90;999.90;;;15.80;99.90;;;;;;5007851;28;20214;-67
2021/09/14 06:38:03;;;;;;;1999.90;999.90;;;15.90;99.90;;;;;;5008790;28;20201;-67
2021/09/14 06:40:29;;;;;;;1999.90;999.90;;;16.00;99.90;;;;;;5009149;28;20600;-67
2021/09/14 06:42:54;;;;;;;1999.90;999.90;;;16.00;99.90;;;;;;5008697;28;20467;-67
2021/09/14 06:45:20;;;;;;;1999.90;999.90;;;16.10;99.90;;;;;;5008363;28;20422;-67
2021/09/14 06:47:47;;;;;;;1999.90;999.90;;;16.20;99.90;;;;;;5008692;28;20192;-67
2021/09/14 06:50:12;;;;;;;1999.90;999.90;;;16.30;99.90;;;;;;5008498;28;20419;-67
2021/09/14 06:52:38;;;;;;;1999.90;999.90;;;16.40;99.90;;;;;;5009198;28;20451;-67
2021/09/14 06:55:05;;;;;;;1999.90;999.90;;;16.40;99.90;;;;;;5008012;28;20210;-67
2021/09/14 06:57:31;;;;;;;1999.90;999.90;;;16.40;99.90;;;;;;5008372;28;20218;-67
2021/09/14 06:59:57;;;;;;;1999.90;999.90;;;16.50;99.90;;;;;;5008992;28;20438;-67
2021/09/14 07:02:22;;;;;;;1999.90;999.90;;;16.50;99.90;;;;;;5008607;28;20245;-67
2021/09/14 07:04:48;;;;;;;1999.90;999.90;;;16.50;99.90;;;;;;5007987;28;20178;-67
2021/09/14 07:07:14;;;;;;;1999.90;999.90;;;16.50;99.90;;;;;;5012101;28;20198;-67
2021/09/14 07:09:40;;;;;;;1999.90;999.90;;;16.40;99.90;;;;;;5012334;28;20475;-67
2021/09/14 07:12:06;;;;;;;1999.90;999.90;;;16.40;99.90;;;;;;5012406;28;20192;-67
2021/09/14 07:14:32;;;;;;;1999.90;999.90;;;16.30;99.90;;;;;;5011971;28;20433;-67
2021/09/14 07:16:57;;;;;;;1999.90;999.90;;;16.20;99.90;;;;;;5012187;28;20473;-67
2021/09/14 07:19:23;;;;;;;1999.90;999.90;;;16.20;99.90;;;;;;5012031;28;20177;-67
2021/09/14 07:21:49;;;;;;;1999.90;999.90;;;16.30;99.90;;;;;;5012221;28;20171;-67
2021/09/14 07:24:14;;;;;;;1999.90;999.90;;;16.30;99.90;;;;;;5011353;28;20181;-67
2021/09/14 07:26:40;;;;;;;1999.90;999.90;;;16.40;99.90;;;;;;5012500;28;20192;-67
2021/09/14 07:29:06;;;;;;;1999.90;999.90;;;16.40;99.90;;;;;;5011629;28;20215;-67
2021/09/14 07:31:33;;;;;;;1999.90;999.90;;;16.50;99.90;;;;;;5011970;28;20188;-67
2021/09/14 07:33:58;;;;;;;1999.90;999.90;;;16.60;99.90;;;;;;5011640;28;20426;-67
2021/09/14 07:36:24;;;;;;;1999.90;999.90;;;16.70;99.90;;;;;;5011409;28;20426;-67
2021/09/14 07:38:50;;;;;;;1999.90;999.90;;;16.90;99.90;;;;;;5011849;28;20185;-67
2021/09/14 07:41:15;;;;;;;1999.90;999.90;;;16.90;99.90;;;;;;5012362;28;20411;-67
2021/09/14 07:43:41;;;;;;;1999.90;999.90;;;17.00;99.90;;;;;;5008168;28;20185;-68
2021/09/14 07:46:09;;;;;;;1999.90;999.90;;;17.10;99.90;;;;;;5010707;28;20675;-68
2021/09/14 07:48:36;;;;;;;1999.90;999.90;;;17.20;99.90;;;;;;5011008;28;20192;-68
2021/09/14 07:51:02;;;;;;;1999.90;999.90;;;17.30;99.90;;;;;;5010965;28;20825;-68
2021/09/14 07:53:27;;;;;;;1999.90;999.90;;;17.40;99.90;;;;;;5011242;28;20481;-68
2021/09/14 07:55:53;;;;;;;1999.90;999.90;;;17.50;99.90;;;;;;5010647;28;20891;-68
2021/09/14 07:58:18;;;;;;;1999.90;999.90;;;17.60;99.90;;;;;;5010300;28;20214;-67
2021/09/14 08:00:44;;;;;;;1999.90;999.90;;;17.70;99.90;;;;;;5011257;28;20176;-67
2021/09/14 08:03:11;;;;;;;1999.90;999.90;;;17.80;99.90;;;;;;5011022;28;20188;-65
2021/09/14 08:05:38;;;;;;;1999.90;999.90;;;17.90;99.90;;;;;;5010518;28;20207;-65
2021/09/14 08:08:06;;;;;;;1999.90;999.90;;;18.00;99.90;;;;;;5011671;28;20448;-65
2021/09/14 08:10:32;;;;;;;1999.90;999.90;;;18.20;99.90;;;;;;5011643;28;20416;-65
2021/09/14 08:12:58;;;;;;;1999.90;999.90;;;18.20;99.90;;;;;;5011638;28;20451;-65
2021/09/14 08:15:23;;;;;;;1999.90;999.90;;;18.30;99.90;;;;;;5011297;28;20519;-65
2021/09/14 08:17:49;;;;;;;1999.90;999.90;;;18.40;99.90;;;;;;5010393;28;20185;-65
2021/09/14 08:20:15;;;;;;;1999.90;999.90;;;18.40;99.90;;;;;;5011004;28;20177;-65
2021/09/14 08:22:41;;;;;;;1999.90;999.90;;;18.50;99.90;;;;;;5012170;28;20188;-65
2021/09/14 08:25:07;;;;;;;1999.90;999.90;;;18.60;99.90;;;;;;5010826;28;20421;-65
2021/09/14 08:27:33;;;;;;;1999.90;999.90;;;18.70;99.90;;;;;;5010440;28;20228;-65
2021/09/14 08:29:59;;;;;;;1999.90;999.90;;;18.90;99.90;;;;;;5011361;28;20409;-65
2021/09/14 08:32:24;;;;;;;1999.90;999.90;;;19.00;99.90;;;;;;5011409;28;20590;-66
2021/09/14 08:34:50;;;;;;;1999.90;999.90;;;19.20;99.90;;;;;;5011311;28;20176;-65
2021/09/14 08:37:16;;;;;;;1999.90;999.90;;;19.30;99.90;;;;;;5010682;28;20264;-65
2021/09/14 08:39:41;;;;;;;1999.90;999.90;;;19.50;99.90;;;;;;5011505;28;20749;-65
2021/09/14 08:42:07;;;;;;;1999.90;999.90;;;19.60;99.90;;;;;;5011590;28;20171;-65
2021/09/14 08:44:36;;;;;;;1999.90;999.90;;;19.70;99.90;;;;;;5010477;28;20177;-65
2021/09/14 08:47:03;;;;;;;1999.90;999.90;;;19.80;99.90;;;;;;5010622;28;20964;-65
2021/09/14 08:49:29;;;;;;;1999.90;999.90;;;19.90;99.90;;;;;;5010311;28;20423;-65
2021/09/14 08:51:56;;;;;;;1999.90;999.90;;;20.00;99.90;;;;;;5010557;28;20424;-66
2021/09/14 08:54:21;;;;;;;1999.90;999.90;;;19.90;99.90;;;;;;5009982;28;20208;-65
2021/09/14 08:56:47;;;;;;;1999.90;999.90;;;20.00;99.90;;;;;;5010163;28;21174;-66
2021/09/14 08:59:27;;;;;;;1999.90;999.90;;;20.20;99.90;;;;;;5010543;28;20254;-65
2021/09/14 09:02:01;;;;;;;1999.90;999.90;;;20.30;99.90;;;;;;5005814;28;20422;-66
2021/09/14 09:04:27;;;;;;;1999.90;999.90;;;20.50;99.90;;;;;;5008449;28;20477;-66
2021/09/14 09:06:53;;;;;;;1999.90;999.90;;;20.60;99.90;;;;;;5008851;28;20432;-66
2021/09/14 09:09:20;;;;;;;1999.90;999.90;;;20.70;99.90;;;;;;5008027;28;20447;-66
2021/09/14 09:12:02;;;;;;;1999.90;999.90;;;20.80;99.90;;;;;;5008106;28;20179;-69
2021/09/14 09:14:50;;;;;;;1999.90;999.90;;;21.00;99.90;;;;;;5007257;28;20412;-68
2021/09/14 09:17:18;;;;;;;1999.90;999.90;;;21.10;99.90;;;;;;5007011;28;20925;-68
2021/09/14 09:20:06;;;;;;;1999.90;999.90;;;21.30;99.90;;;;;;5008730;28;20405;-66
2021/09/14 09:22:33;;;;;;;1999.90;999.90;;;21.50;99.90;;;;;;5008191;28;20474;-66
2021/09/14 09:24:59;;;;;;;1999.90;999.90;;;21.60;99.90;;;;;;5007694;28;20421;-66
2021/09/14 09:27:27;;;;;;;1999.90;999.90;;;21.80;99.90;;;;;;5008346;28;20454;-66
2021/09/14 09:29:57;;;;;;;1999.90;999.90;;;22.00;99.90;;;;;;5008200;28;21065;-66
2021/09/14 09:32:22;;;;;;;1999.90;999.90;;;22.30;99.90;;;;;;5007683;28;20432;-66
2021/09/14 09:34:57;;;;;;;1999.90;999.90;;;22.50;99.90;;;;;;5007491;28;20936;-66
2021/09/14 09:37:22;;;;;;;1999.90;999.90;;;22.60;99.90;;;;;;5008513;28;20207;-66
2021/09/14 09:39:48;;;;;;;1999.90;999.90;;;22.70;99.90;;;;;;5007485;28;20419;-66
2021/09/14 09:42:15;;;;;;;1999.90;999.90;;;22.90;99.90;;;;;;5008322;28;20214;-66
2021/09/14 09:44:55;;;;;;;1999.90;999.90;;;22.90;99.90;;;;;;5007813;28;20275;-66
2021/09/14 09:47:22;;;;;;;1999.90;999.90;;;22.90;99.90;;;;;;5007693;28;20409;-66
2021/09/14 09:49:47;;;;;;;1999.90;999.90;;;23.00;99.90;;;;;;5007705;28;20440;-66
2021/09/14 09:52:14;;;;;;;1999.90;999.90;;;23.10;99.90;;;;;;5007720;28;20456;-66
2021/09/14 09:54:40;;;;;;;1999.90;999.90;;;23.10;99.90;;;;;;5007065;28;20184;-66
2021/09/14 09:57:08;;;;;;;1999.90;999.90;;;23.10;99.90;;;;;;5007274;28;20777;-66
2021/09/14 09:59:34;;;;;;;1999.90;999.90;;;23.20;99.90;;;;;;5007491;28;20397;-66
2021/09/14 10:02:05;;;;;;;1999.90;999.90;;;23.30;99.90;;;;;;5007620;28;20429;-65
2021/09/14 10:04:46;;;;;;;1999.90;999.90;;;23.40;99.90;;;;;;5006517;28;20200;-66
2021/09/14 10:07:13;;;;;;;1999.90;999.90;;;23.60;99.90;;;;;;5007400;28;20445;-66
2021/09/14 10:09:51;;;;;;;1999.90;999.90;;;23.70;99.90;;;;;;5004979;28;20546;-66
2021/09/14 10:12:30;;;;;;;1999.90;999.90;;;23.90;99.90;;;;;;5006590;28;20465;-66
2021/09/14 10:14:56;;;;;;;1999.90;999.90;;;24.00;99.90;;;;;;5005671;28;20386;-66
2021/09/14 10:17:22;;;;;;;1999.90;999.90;;;24.10;99.90;;;;;;5006914;28;20446;-66
2021/09/14 10:19:48;;;;;;;1999.90;999.90;;;24.20;99.90;;;;;;5007588;28;20489;-66
2021/09/14 10:22:26;;;;;;;1999.90;999.90;;;24.30;99.90;;;;;;5006576;28;20219;-66
2021/09/14 10:25:01;;;;;;;1999.90;999.90;;;24.50;99.90;;;;;;5005831;28;20191;-66
2021/09/14 10:27:41;;;;;;;1999.90;999.90;;;24.70;99.90;;;;;;5006330;28;20467;-66
2021/09/14 10:30:09;;;;;;;1999.90;999.90;;;24.90;99.90;;;;;;5006083;28;20386;-66
2021/09/14 10:32:39;;;;;;;1999.90;999.90;;;25.20;99.90;;;;;;5005935;28;20455;-66
2021/09/14 10:35:05;;;;;;;1999.90;999.90;;;25.40;99.90;;;;;;5005826;28;20434;-66
2021/09/14 10:37:32;;;;;;;1999.90;999.90;;;25.50;99.90;;;;;;5005991;28;20448;-66
2021/09/14 10:40:14;;;;;;;1999.90;999.90;;;25.60;99.90;;;;;;5007200;28;20473;-66
2021/09/14 10:42:43;;;;;;;1999.90;999.90;;;25.70;99.90;;;;;;5012981;28;20420;-66
2021/09/14 10:45:14;;;;;;;1999.90;999.90;;;25.70;99.90;;;;;;5011978;28;20424;-66
2021/09/14 10:47:45;;;;;;;1999.90;999.90;;;25.80;99.90;;;;;;5012719;28;20439;-66
2021/09/14 10:50:24;;;;;;;1999.90;999.90;;;25.70;99.90;;;;;;5013321;28;20451;-66
2021/09/14 10:52:58;;;;;;;1999.90;999.90;;;25.70;99.90;;;;;;5012987;28;20429;-66
2021/09/14 10:55:23;;;;;;;1999.90;999.90;;;25.80;99.90;;;;;;5013315;28;20390;-66
2021/09/14 10:57:51;;;;;;;1999.90;999.90;;;25.90;99.90;;;;;;5013270;28;20390;-66
2021/09/14 11:00:28;;;;;;;1999.90;999.90;;;26.00;99.90;;;;;;5013299;28;20177;-66
2021/09/14 11:02:58;;;;;;;1999.90;999.90;;;26.20;99.90;;;;;;5013905;28;20940;-67
2021/09/14 11:05:31;;;;;;;1999.90;999.90;;;26.40;99.90;;;;;;5013408;28;20772;-66
2021/09/14 11:08:05;;;;;;;1999.90;999.90;;;26.60;99.90;;;;;;5013466;28;20394;-66
2021/09/14 11:10:35;;;;;;;1999.90;999.90;;;26.80;99.90;;;;;;5013679;28;20414;-66
2021/09/14 11:13:02;;;;;;;1999.90;999.90;;;27.00;99.90;;;;;;5013209;28;20520;-66
2021/09/14 11:15:28;;;;;;;1999.90;999.90;;;27.20;99.90;;;;;;5012359;28;20507;-66
2021/09/14 11:17:54;;;;;;;1999.90;999.90;;;27.40;99.90;;;;;;5013637;28;20942;-66
2021/09/14 11:20:21;;;;;;;1999.90;999.90;;;27.50;99.90;;;;;;5013202;28;20169;-66
2021/09/14 11:22:50;;;;;;;1999.90;999.90;;;27.50;99.90;;;;;;5013150;28;20708;-66
2021/09/14 11:25:22;;;;;;;1999.90;999.90;;;27.70;99.90;;;;;;5014119;28;20400;-68
2021/09/14 11:28:09;;;;;;;1999.90;999.90;;;27.90;99.90;;;;;;5014576;28;20398;-67
2021/09/14 11:30:36;;;;;;;1999.90;999.90;;;28.10;99.90;;;;;;5015472;28;20423;-67
2021/09/14 11:33:03;;;;;;;1999.90;999.90;;;28.30;99.90;;;;;;5014614;28;20455;-68
2021/09/14 11:35:30;;;;;;;1999.90;999.90;;;28.50;99.90;;;;;;5014009;28;20416;-69
2021/09/14 11:38:02;;;;;;;1999.90;999.90;;;28.60;99.90;;;;;;5012834;28;20830;-70
2021/09/14 11:40:29;;;;;;;1999.90;999.90;;;28.80;99.90;;;;;;4996689;28;20474;-70
2021/09/14 11:42:55;;;;;;;1999.90;999.90;;;29.00;99.90;;;;;;5013509;28;20415;-68
2021/09/14 11:45:24;;;;;;;1999.90;999.90;;;29.30;99.90;;;;;;5012184;28;21007;-70
2021/09/14 11:47:53;;;;;;;1999.90;999.90;;;29.40;99.90;;;;;;5013924;28;20428;-69
2021/09/14 11:50:29;;;;;;;1999.90;999.90;;;29.40;99.90;;;;;;5014022;28;21210;-69
2021/09/14 11:53:05;;;;;;;1999.90;999.90;;;29.30;99.90;;;;;;5011483;28;20463;-70
2021/09/14 11:55:31;;;;;;;1999.90;999.90;;;29.20;99.90;;;;;;5009603;28;20431;-69
2021/09/14 11:57:58;;;;;;;1999.90;999.90;;;29.10;99.90;;;;;;5011658;28;20420;-69
2021/09/14 12:00:38;;;;;;;1999.90;999.90;;;28.90;99.90;;;;;;5013384;28;20165;-68
2021/09/14 12:03:04;;;;;;;1999.90;999.90;;;28.80;99.90;;;;;;5013313;28;20434;-69
2021/09/14 12:05:29;;;;;;;1999.90;999.90;;;28.60;99.90;;;;;;5011232;28;20430;-69
2021/09/14 12:08:01;;;;;;;1999.90;999.90;;;28.60;99.90;;;;;;5011013;28;20933;-69
2021/09/14 12:10:28;;;;;;;1999.90;999.90;;;28.50;99.90;;;;;;5011789;28;20209;-69
2021/09/14 12:12:55;;;;;;;1999.90;999.90;;;28.30;99.90;;;;;;5012453;28;20537;-69
2021/09/14 12:15:22;;;;;;;1999.90;999.90;;;28.20;99.90;;;;;;5010486;28;20401;-69
2021/09/14 12:17:48;;;;;;;1999.90;999.90;;;28.10;99.90;;;;;;5011850;28;20454;-69
2021/09/14 12:20:15;;;;;;;1999.90;999.90;;;28.10;99.90;;;;;;5012822;28;20473;-69
2021/09/14 12:22:41;;;;;;;1999.90;999.90;;;28.00;99.90;;;;;;5011163;28;20412;-69
2021/09/14 12:25:07;;;;;;;1999.90;999.90;;;28.00;99.90;;;;;;5011293;28;20426;-69
2021/09/14 12:27:33;;;;;;;1999.90;999.90;;;28.10;99.90;;;;;;5009881;28;20428;-69
2021/09/14 12:29:58;;;;;;;1999.90;999.90;;;27.90;99.90;;;;;;5008890;28;20416;-69
2021/09/14 12:32:26;;;;;;;1999.90;999.90;;;27.90;99.90;;;;;;5010460;28;20279;-69
2021/09/14 12:34:52;;;;;;;1999.90;999.90;;;27.90;99.90;;;;;;5009854;28;20412;-69
2021/09/14 12:37:17;;;;;;;1999.90;999.90;;;27.90;99.90;;;;;;5009300;28;20414;-69
2021/09/14 12:39:43;;;;;;;1999.90;999.90;;;28.00;99.90;;;;;;5009936;28;20184;-69
2021/09/14 12:42:08;;;;;;;1999.90;999.90;;;28.00;99.90;;;;;;5009627;28;20706;-69
2021/09/14 12:44:34;;;;;;;1999.90;999.90;;;28.10;99.90;;;;;;5007779;28;20173;-69
2021/09/14 12:47:01;;;;;;;1999.90;999.90;;;28.20;99.90;;;;;;5008950;28;20359;-69
2021/09/14 12:49:26;;;;;;;1999.90;999.90;;;28.50;99.90;;;;;;5008488;28;20177;-69
2021/09/14 12:51:53;;;;;;;1999.90;999.90;;;28.80;99.90;;;;;;5008080;28;20407;-69
2021/09/14 12:54:19;;;;;;;1999.90;999.90;;;29.20;99.90;;;;;;5007872;28;20177;-69
2021/09/14 12:56:45;;;;;;;1999.90;999.90;;;29.70;99.90;;;;;;5007923;28;20438;-69
2021/09/14 12:59:10;;;;;;;1999.90;999.90;;;30.30;99.90;;;;;;5008135;28;20172;-69